Time;durP1;ratioP1;P1;durP2;ratioP2;P2;SDS_P1;SDS_P2;PMS_P1;PMS_P2;Temp;Humidity;BMP_temperature;BMP_pressure;BME280_temperature;BME280_humidity;BME280_pressure;Samples;Min_cycle;Max_cycle;Signal;HPM_P1;HPM_P2
2023/08/31 00:26:06;;;;;;;1.90;1.80;;;;;;;;;;6212793;22;20162;-93
2023/08/31 00:28:35;;;;;;;1.95;1.80;;;;;;;;;;6215934;23;20159;-95
2023/08/31 00:31:04;;;;;;;1.90;1.70;;;;;;;;;;6216083;23;20249;-95
2023/08/31 00:33:33;;;;;;;2.30;1.60;;;;;;;;;;6215802;23;20150;-94
2023/08/31 00:36:03;;;;;;;1.90;1.77;;;;;;;;;;6215896;23;20151;-95
2023/08/31 00:38:31;;;;;;;2.85;1.83;;;;;;;;;;6215563;23;20202;-95
2023/08/31 00:40:59;;;;;;;1.58;1.48;;;;;;;;;;6215997;23;20173;-96
2023/08/31 00:43:29;;;;;;;1.63;1.52;;;;;;;;;;6215080;23;20365;-95
2023/08/31 00:45:58;;;;;;;1.38;1.30;;;;;;;;;;6215379;23;20147;-95
2023/08/31 00:48:26;;;;;;;2.30;2.00;;;;;;;;;;6215464;23;20147;-95
2023/08/31 00:50:54;;;;;;;2.55;1.70;;;;;;;;;;6215613;23;20165;-94
2023/08/31 00:53:22;;;;;;;1.80;1.70;;;;;;;;;;6215357;23;20150;-94
2023/08/31 00:55:51;;;;;;;2.33;2.13;;;;;;;;;;6215276;23;20153;-95
2023/08/31 00:58:18;;;;;;;1.63;1.52;;;;;;;;;;6215572;23;20143;-95
2023/08/31 01:00:58;;;;;;;1.80;1.70;;;;;;;;;;6215790;23;20223;-95
2023/08/31 01:03:36;;;;;;;1.52;1.48;;;;;;;;;;6215275;23;20157;-95
2023/08/31 01:06:11;;;;;;;1.77;1.40;;;;;;;;;;6215252;23;20146;-95
2023/08/31 01:08:54;;;;;;;2.30;1.98;;;;;;;;;;6215361;23;20146;-95
2023/08/31 01:11:31;;;;;;;2.80;2.20;;;;;;;;;;6215244;23;20154;-94
2023/08/31 01:14:04;;;;;;;2.03;1.92;;;;;;;;;;6214968;23;20146;-96
2023/08/31 01:16:36;;;;;;;1.63;1.52;;;;;;;;;;6214958;23;20151;-95
2023/08/31 01:19:07;;;;;;;1.98;1.52;;;;;;;;;;6215191;23;20162;-94
2023/08/31 01:21:38;;;;;;;2.25;1.58;;;;;;;;;;6215160;23;20162;-95
2023/08/31 01:24:08;;;;;;;2.05;1.30;;;;;;;;;;6215144;23;20158;-96
2023/08/31 01:26:36;;;;;;;1.60;1.50;;;;;;;;;;6215242;23;20159;-95
2023/08/31 01:29:05;;;;;;;2.60;1.50;;;;;;;;;;6215440;23;20166;-95
2023/08/31 01:31:33;;;;;;;2.35;2.17;;;;;;;;;;6215038;23;20170;-94
2023/08/31 01:34:02;;;;;;;2.80;2.17;;;;;;;;;;6214991;23;20147;-94
2023/08/31 01:36:32;;;;;;;2.15;2.03;;;;;;;;;;6214957;23;20154;-95
2023/08/31 01:39:07;;;;;;;1.80;1.70;;;;;;;;;;6214926;23;20162;-95
2023/08/31 01:41:37;;;;;;;2.60;2.20;;;;;;;;;;6214957;23;20154;-95
2023/08/31 01:44:05;;;;;;;3.72;1.98;;;;;;;;;;6214761;23;20159;-95
2023/08/31 01:46:33;;;;;;;2.97;2.58;;;;;;;;;;6214717;23;20146;-93
2023/08/31 01:49:01;;;;;;;3.80;2.53;;;;;;;;;;6214989;23;20143;-93
2023/08/31 01:51:29;;;;;;;3.00;2.22;;;;;;;;;;6215198;23;20151;-94
2023/08/31 01:53:58;;;;;;;1.75;1.65;;;;;;;;;;6214614;23;20150;-95
2023/08/31 01:56:26;;;;;;;2.38;2.17;;;;;;;;;;6214768;23;20173;-94
2023/08/31 01:58:55;;;;;;;2.17;1.98;;;;;;;;;;6214865;23;20150;-95
2023/08/31 02:01:23;;;;;;;1.92;1.83;;;;;;;;;;6214680;23;20172;-95
2023/08/31 02:03:50;;;;;;;2.00;1.90;;;;;;;;;;6214630;23;20151;-96
2023/08/31 02:06:18;;;;;;;1.55;1.45;;;;;;;;;;6214623;23;20202;-94
2023/08/31 02:08:47;;;;;;;2.15;2.03;;;;;;;;;;6214647;23;20187;-95
2023/08/31 02:11:15;;;;;;;1.63;1.52;;;;;;;;;;6214772;23;20153;-95
2023/08/31 02:13:44;;;;;;;1.65;1.55;;;;;;;;;;6214299;23;20159;-96
2023/08/31 02:16:13;;;;;;;1.50;1.40;;;;;;;;;;6214385;23;20149;-94
2023/08/31 02:18:40;;;;;;;1.42;1.33;;;;;;;;;;6214671;23;20151;-94
2023/08/31 02:21:08;;;;;;;1.63;1.38;;;;;;;;;;6214613;23;20162;-95
2023/08/31 02:23:36;;;;;;;1.90;1.80;;;;;;;;;;6214414;23;20151;-94
2023/08/31 02:26:04;;;;;;;1.80;1.70;;;;;;;;;;6214399;23;20157;-96
2023/08/31 02:28:32;;;;;;;1.73;1.63;;;;;;;;;;6214307;23;20198;-96
2023/08/31 02:31:00;;;;;;;1.90;1.80;;;;;;;;;;6214616;23;20150;-96
2023/08/31 02:33:29;;;;;;;2.08;1.90;;;;;;;;;;6214399;23;20149;-93
2023/08/31 02:35:57;;;;;;;2.22;1.77;;;;;;;;;;6214485;23;20150;-95
2023/08/31 02:38:26;;;;;;;1.65;1.55;;;;;;;;;;6214532;23;20160;-94
2023/08/31 02:40:53;;;;;;;1.70;1.60;;;;;;;;;;6214444;23;20209;-96
2023/08/31 02:43:21;;;;;;;1.92;1.80;;;;;;;;;;6214191;23;20151;-94
2023/08/31 02:45:49;;;;;;;1.70;1.60;;;;;;;;;;6214147;23;20151;-95
2023/08/31 02:48:16;;;;;;;1.67;1.58;;;;;;;;;;6214439;23;20150;-94
2023/08/31 02:50:47;;;;;;;2.40;2.20;;;;;;;;;;6214388;23;20149;-94
2023/08/31 02:53:15;;;;;;;2.30;2.10;;;;;;;;;;6214171;23;20146;-94
2023/08/31 02:55:44;;;;;;;2.63;2.42;;;;;;;;;;6214253;23;20153;-96
2023/08/31 02:58:11;;;;;;;3.20;3.00;;;;;;;;;;6214423;23;20151;-95
2023/08/31 03:00:42;;;;;;;3.17;2.88;;;;;;;;;;6214251;23;20163;-96
2023/08/31 03:03:11;;;;;;;4.38;3.40;;;;;;;;;;6159202;23;20206;-95
2023/08/31 03:05:39;;;;;;;2.17;2.08;;;;;;;;;;6184399;23;20152;-95
2023/08/31 03:08:08;;;;;;;3.35;2.47;;;;;;;;;;6184346;23;20163;-95
2023/08/31 03:10:37;;;;;;;3.08;2.88;;;;;;;;;;6184486;23;20195;-95
2023/08/31 03:13:05;;;;;;;2.58;2.38;;;;;;;;;;6184055;23;20148;-94
2023/08/31 03:15:34;;;;;;;2.67;2.47;;;;;;;;;;6184204;23;20148;-95
2023/08/31 03:18:02;;;;;;;2.45;2.35;;;;;;;;;;6184359;23;20148;-95
2023/08/31 03:20:30;;;;;;;2.33;2.17;;;;;;;;;;6184207;23;20155;-94
2023/08/31 03:22:58;;;;;;;2.60;2.40;;;;;;;;;;6184155;23;20147;-94
2023/08/31 03:25:28;;;;;;;3.78;3.22;;;;;;;;;;6184165;23;20163;-95
2023/08/31 03:27:56;;;;;;;6.32;3.33;;;;;;;;;;6184494;23;20151;-94
2023/08/31 03:30:24;;;;;;;2.67;2.47;;;;;;;;;;6184251;23;20147;-96
2023/08/31 03:32:52;;;;;;;3.05;2.85;;;;;;;;;;6184059;23;20151;-95
2023/08/31 03:35:19;;;;;;;3.65;3.30;;;;;;;;;;6184317;23;20191;-96
2023/08/31 03:37:49;;;;;;;2.70;2.50;;;;;;;;;;6184385;23;20148;-96
2023/08/31 03:40:17;;;;;;;4.03;3.05;;;;;;;;;;6184883;23;20147;-94
2023/08/31 03:42:46;;;;;;;2.40;2.20;;;;;;;;;;6185954;23;20154;-94
2023/08/31 03:45:14;;;;;;;2.60;2.40;;;;;;;;;;6186149;23;20152;-96
2023/08/31 03:47:41;;;;;;;2.63;2.42;;;;;;;;;;6186142;23;20175;-95
2023/08/31 03:50:10;;;;;;;2.28;2.08;;;;;;;;;;6186113;23;20147;-95
2023/08/31 03:52:37;;;;;;;2.15;1.92;;;;;;;;;;6185841;23;20209;-94
2023/08/31 03:55:06;;;;;;;2.53;2.33;;;;;;;;;;6181934;23;20152;-95
2023/08/31 03:57:34;;;;;;;2.15;2.03;;;;;;;;;;6180456;23;20162;-95
2023/08/31 04:00:08;;;;;;;2.33;2.15;;;;;;;;;;6181167;23;20178;-95
2023/08/31 04:02:37;;;;;;;2.60;2.40;;;;;;;;;;6181066;23;20182;-94
2023/08/31 04:05:06;;;;;;;2.13;2.00;;;;;;;;;;6181203;23;20163;-95
2023/08/31 04:07:35;;;;;;;4.25;2.72;;;;;;;;;;6180978;23;20155;-95
2023/08/31 04:10:03;;;;;;;3.40;3.10;;;;;;;;;;6181701;23;20148;-94
2023/08/31 04:12:33;;;;;;;2.53;2.33;;;;;;;;;;6180843;23;20158;-95
2023/08/31 04:15:03;;;;;;;2.03;1.92;;;;;;;;;;6181134;23;20152;-96
2023/08/31 04:17:31;;;;;;;3.03;2.80;;;;;;;;;;6181098;23;20151;-95
2023/08/31 04:19:58;;;;;;;4.50;3.15;;;;;;;;;;6180673;23;20476;-95
2023/08/31 04:22:26;;;;;;;2.13;2.00;;;;;;;;;;6180296;23;20163;-95
2023/08/31 04:24:54;;;;;;;1.80;1.70;;;;;;;;;;6180184;23;20151;-96
2023/08/31 04:27:22;;;;;;;2.33;2.10;;;;;;;;;;6180066;23;20152;-95
2023/08/31 04:29:50;;;;;;;2.10;2.00;;;;;;;;;;6179751;23;20152;-95
2023/08/31 04:32:19;;;;;;;2.30;2.15;;;;;;;;;;6179272;23;20159;-96
2023/08/31 04:34:46;;;;;;;2.58;2.38;;;;;;;;;;6178910;23;20183;-94
2023/08/31 04:39:55;;;;;;;2.80;2.60;;;;;;;;;;6178694;23;20148;-95
2023/08/31 04:42:23;;;;;;;2.70;2.50;;;;;;;;;;6178627;23;20193;-95
2023/08/31 04:44:51;;;;;;;2.67;2.47;;;;;;;;;;6178478;23;20209;-95
2023/08/31 04:47:20;;;;;;;1.77;1.65;;;;;;;;;;6178462;23;20171;-94
2023/08/31 04:49:48;;;;;;;2.30;2.10;;;;;;;;;;6178772;23;20159;-94
2023/08/31 04:52:15;;;;;;;2.60;2.40;;;;;;;;;;6177922;23;20170;-95
2023/08/31 04:54:43;;;;;;;7.22;2.60;;;;;;;;;;6178276;23;20214;-95
2023/08/31 04:57:11;;;;;;;2.75;2.55;;;;;;;;;;6178980;23;20178;-94
2023/08/31 04:59:38;;;;;;;2.70;2.50;;;;;;;;;;6178572;23;20151;-95
2023/08/31 05:02:06;;;;;;;3.53;3.22;;;;;;;;;;6178328;23;20187;-95
2023/08/31 05:04:35;;;;;;;4.00;2.20;;;;;;;;;;6178421;23;20162;-95
2023/08/31 05:07:03;;;;;;;2.58;2.38;;;;;;;;;;6178585;23;20166;-93
2023/08/31 05:09:32;;;;;;;2.40;2.30;;;;;;;;;;6178337;23;20189;-94
2023/08/31 05:12:00;;;;;;;2.20;2.08;;;;;;;;;;6178014;23;20274;-95
2023/08/31 05:14:27;;;;;;;2.50;2.30;;;;;;;;;;6178524;23;20166;-93
2023/08/31 05:16:55;;;;;;;2.33;2.13;;;;;;;;;;6178406;23;20163;-95
2023/08/31 05:19:23;;;;;;;2.38;2.28;;;;;;;;;;6178124;23;20159;-95
2023/08/31 05:21:52;;;;;;;2.00;1.90;;;;;;;;;;6177692;23;20194;-95
2023/08/31 05:24:20;;;;;;;1.65;1.55;;;;;;;;;;6177873;23;20176;-94
2023/08/31 05:26:47;;;;;;;3.20;2.67;;;;;;;;;;6177754;23;20178;-94
2023/08/31 05:29:15;;;;;;;2.85;2.55;;;;;;;;;;6178122;23;20170;-95
2023/08/31 05:31:43;;;;;;;4.15;3.13;;;;;;;;;;6178063;23;20170;-94
2023/08/31 05:34:11;;;;;;;2.60;2.40;;;;;;;;;;6177646;23;20245;-95
2023/08/31 05:36:39;;;;;;;2.78;2.50;;;;;;;;;;6177737;23;20190;-95
2023/08/31 05:39:08;;;;;;;2.28;2.10;;;;;;;;;;6177880;23;20172;-96
2023/08/31 05:41:36;;;;;;;3.50;3.17;;;;;;;;;;6177773;23;20253;-95
2023/08/31 05:44:04;;;;;;;3.88;3.58;;;;;;;;;;6177729;23;20173;-94
2023/08/31 05:46:32;;;;;;;3.72;3.42;;;;;;;;;;6178112;23;20171;-95
2023/08/31 05:49:00;;;;;;;3.92;3.53;;;;;;;;;;6177836;23;20186;-96
2023/08/31 05:51:27;;;;;;;3.00;2.80;;;;;;;;;;6177801;23;20152;-94
2023/08/31 05:53:55;;;;;;;3.72;3.33;;;;;;;;;;6177429;23;20175;-94
2023/08/31 05:56:24;;;;;;;3.88;3.20;;;;;;;;;;6182055;23;20175;-94
2023/08/31 05:58:54;;;;;;;3.80;3.47;;;;;;;;;;6183095;23;20167;-95
2023/08/31 06:01:23;;;;;;;3.72;3.42;;;;;;;;;;6183287;23;20214;-95
2023/08/31 06:03:50;;;;;;;3.50;3.20;;;;;;;;;;6182697;23;20171;-94
2023/08/31 06:06:19;;;;;;;4.15;3.85;;;;;;;;;;6189693;22;20201;-96
2023/08/31 06:08:48;;;;;;;2.60;2.40;;;;;;;;;;6273910;22;20153;-94
2023/08/31 06:11:16;;;;;;;3.42;3.13;;;;;;;;;;6273614;22;20180;-95
2023/08/31 06:13:45;;;;;;;4.43;3.13;;;;;;;;;;6259266;22;20194;-95
2023/08/31 06:16:13;;;;;;;3.10;2.60;;;;;;;;;;6213783;23;20182;-96
2023/08/31 06:18:41;;;;;;;3.70;3.40;;;;;;;;;;6212993;23;20189;-95
2023/08/31 06:21:24;;;;;;;3.03;2.80;;;;;;;;;;6210304;22;20209;-94
2023/08/31 06:23:52;;;;;;;3.33;3.00;;;;;;;;;;6213998;23;20162;-95
2023/08/31 06:26:26;;;;;;;2.97;2.78;;;;;;;;;;6214687;23;20178;-96
2023/08/31 06:28:55;;;;;;;3.47;3.17;;;;;;;;;;6214504;23;20163;-95
2023/08/31 06:31:24;;;;;;;2.90;2.70;;;;;;;;;;6210819;22;20907;-95
2023/08/31 06:33:52;;;;;;;2.67;2.47;;;;;;;;;;6214482;23;20147;-95
2023/08/31 06:36:20;;;;;;;2.75;2.38;;;;;;;;;;6214462;23;20170;-95
2023/08/31 06:38:49;;;;;;;3.03;2.67;;;;;;;;;;6211561;22;20212;-95
2023/08/31 06:41:18;;;;;;;2.53;2.28;;;;;;;;;;6207668;22;20197;-96
2023/08/31 06:43:46;;;;;;;4.05;3.63;;;;;;;;;;6212701;23;20202;-95
2023/08/31 06:46:16;;;;;;;2.63;2.42;;;;;;;;;;6210662;22;20182;-95
2023/08/31 06:48:44;;;;;;;2.72;2.53;;;;;;;;;;6210004;22;20208;-95
2023/08/31 06:51:14;;;;;;;2.83;2.63;;;;;;;;;;6208832;22;20185;-94
2023/08/31 06:53:44;;;;;;;2.30;2.17;;;;;;;;;;6207656;23;20165;-94
2023/08/31 06:56:12;;;;;;;3.15;2.75;;;;;;;;;;6212565;23;20198;-94
2023/08/31 06:58:54;;;;;;;2.60;2.40;;;;;;;;;;6211409;22;20182;-95
2023/08/31 07:04:39;;;;;;;2.20;2.00;;;;;;;;;;6211035;23;20150;-95
2023/08/31 07:07:08;;;;;;;2.35;2.15;;;;;;;;;;6214667;23;20151;-95
2023/08/31 07:09:36;;;;;;;2.22;2.03;;;;;;;;;;6212742;23;20185;-95
2023/08/31 07:12:05;;;;;;;4.82;2.92;;;;;;;;;;6212897;23;20162;-96
2023/08/31 07:17:38;;;;;;;2.10;2.00;;;;;;;;;;6211443;22;20219;-95
2023/08/31 07:34:07;;;;;;;2.65;1.67;;;;;;;;;;6199712;22;20201;-95
2023/08/31 07:39:12;;;;;;;3.97;2.10;;;;;;;;;;6214633;22;20176;-96
2023/08/31 07:41:40;;;;;;;2.40;2.20;;;;;;;;;;6245652;23;20181;-94
2023/08/31 07:46:46;;;;;;;2.05;1.90;;;;;;;;;;6210893;22;20166;-95
2023/08/31 07:49:20;;;;;;;2.90;2.35;;;;;;;;;;6215431;23;20165;-95
2023/08/31 07:51:47;;;;;;;2.92;2.20;;;;;;;;;;6214407;23;20146;-94
2023/08/31 07:54:21;;;;;;;7.43;2.60;;;;;;;;;;6214172;23;20150;-95
2023/08/31 08:15:17;;;;;;;2.67;1.55;;;;;;;;;;6209491;22;20185;-95
2023/08/31 08:17:45;;;;;;;2.92;2.20;;;;;;;;;;6214329;23;20173;-94
2023/08/31 08:20:15;;;;;;;1.98;1.75;;;;;;;;;;6212721;22;20182;-95
2023/08/31 08:22:51;;;;;;;1.80;1.70;;;;;;;;;;6204739;22;20183;-95
2023/08/31 08:31:14;;;;;;;6.03;2.00;;;;;;;;;;6216218;23;20394;-95
2023/08/31 08:34:41;;;;;;;2.95;1.90;;;;;;;;;;6216837;23;20143;-94
2023/08/31 08:40:28;;;;;;;4.43;1.75;;;;;;;;;;6183743;23;20159;-94
2023/08/31 08:47:15;;;;;;;2.00;1.70;;;;;;;;;;6077071;23;20187;-93
2023/08/31 08:52:30;;;;;;;1.42;1.33;;;;;;;;;;6198361;23;20166;-94
2023/08/31 08:54:59;;;;;;;1.40;1.30;;;;;;;;;;6215658;23;20155;-93
2023/08/31 08:57:26;;;;;;;4.38;2.20;;;;;;;;;;6214612;23;20178;-94
2023/08/31 09:02:32;;;;;;;2.42;2.10;;;;;;;;;;6201356;22;20195;-95
2023/08/31 09:05:00;;;;;;;1.83;1.65;;;;;;;;;;6215931;23;20174;-95
2023/08/31 09:07:34;;;;;;;1.63;1.52;;;;;;;;;;6215844;23;20147;-95
2023/08/31 09:10:03;;;;;;;1.77;1.67;;;;;;;;;;6215758;23;20152;-96
2023/08/31 09:12:31;;;;;;;7.90;2.50;;;;;;;;;;6215155;23;20151;-95
2023/08/31 09:15:00;;;;;;;2.72;1.80;;;;;;;;;;6214972;23;20151;-94
2023/08/31 09:17:40;;;;;;;2.60;1.85;;;;;;;;;;6215345;23;20146;-94
2023/08/31 09:20:18;;;;;;;2.03;1.60;;;;;;;;;;6215339;23;20146;-95
2023/08/31 09:23:28;;;;;;;1.60;1.50;;;;;;;;;;6215806;23;20153;-95
2023/08/31 10:56:01;;;;;;;2.80;2.28;;;;;;;;;;6210032;22;20233;-94
2023/08/31 11:31:31;;;;;;;1.85;1.42;;;;;;;;;;6191588;23;20151;-90
2023/08/31 11:33:59;;;;;;;1.50;1.20;;;;;;;;;;6211939;23;20172;-92
2023/08/31 11:36:30;;;;;;;1.17;1.13;;;;;;;;;;6212139;23;20205;-94
2023/08/31 11:41:36;;;;;;;2.75;1.35;;;;;;;;;;6176494;23;20178;-94
2023/08/31 11:44:05;;;;;;;4.95;1.77;;;;;;;;;;6212164;23;20150;-95
2023/08/31 11:46:35;;;;;;;3.30;2.20;;;;;;;;;;6212452;23;20182;-94
2023/08/31 11:49:04;;;;;;;2.60;1.70;;;;;;;;;;6207765;22;20206;-94
2023/08/31 11:51:35;;;;;;;5.47;1.58;;;;;;;;;;6200770;22;20182;-95
2023/08/31 11:59:53;;;;;;;1.30;1.17;;;;;;;;;;6213470;23;20143;-94
2023/08/31 12:02:24;;;;;;;2.15;1.48;;;;;;;;;;6215985;23;20174;-95
2023/08/31 12:04:52;;;;;;;8.38;1.20;;;;;;;;;;6194891;22;20186;-96
2023/08/31 12:07:21;;;;;;;6.90;1.48;;;;;;;;;;6216641;23;20151;-95
2023/08/31 12:10:03;;;;;;;1.30;1.20;;;;;;;;;;6216692;23;20155;-95
2023/08/31 12:12:34;;;;;;;2.65;1.35;;;;;;;;;;6191509;23;20210;-94
2023/08/31 12:15:04;;;;;;;1.30;1.20;;;;;;;;;;6184954;23;20215;-95
2023/08/31 12:17:53;;;;;;;3.15;1.13;;;;;;;;;;6206704;23;20182;-95
2023/08/31 12:20:27;;;;;;;2.28;1.50;;;;;;;;;;6216274;23;20146;-95
2023/08/31 12:22:56;;;;;;;1.77;1.67;;;;;;;;;;6216367;23;20147;-96
2023/08/31 12:25:27;;;;;;;1.10;1.10;;;;;;;;;;6185893;22;20186;-95
2023/08/31 12:31:39;;;;;;;1.92;1.17;;;;;;;;;;6215011;23;20151;-94
2023/08/31 12:44:37;;;;;;;1.48;1.38;;;;;;;;;;6202029;23;20165;-95
2023/08/31 12:47:09;;;;;;;3.88;1.58;;;;;;;;;;6185542;23;20182;-95
2023/08/31 12:50:03;;;;;;;1.75;1.65;;;;;;;;;;6186452;23;20187;-95
2023/08/31 12:52:35;;;;;;;1.58;1.48;;;;;;;;;;6186121;23;20164;-96
2023/08/31 12:55:09;;;;;;;1.50;1.40;;;;;;;;;;6186256;23;20144;-94
2023/08/31 13:01:32;;;;;;;1.98;1.15;;;;;;;;;;6171156;23;20178;-95
2023/08/31 13:07:50;;;;;;;1.50;1.40;;;;;;;;;;6184764;23;20148;-95
2023/08/31 13:10:30;;;;;;;2.95;1.60;;;;;;;;;;6186542;23;20199;-95
2023/08/31 13:13:08;;;;;;;1.23;1.23;;;;;;;;;;6185693;23;20147;-95
2023/08/31 13:15:43;;;;;;;1.80;1.13;;;;;;;;;;6185745;23;20166;-96
2023/08/31 13:18:12;;;;;;;1.17;1.08;;;;;;;;;;6185452;23;20159;-94
2023/08/31 13:20:40;;;;;;;1.48;1.38;;;;;;;;;;6185173;23;20151;-96
2023/08/31 13:23:09;;;;;;;3.55;1.38;;;;;;;;;;6184663;23;20151;-95
2023/08/31 13:25:39;;;;;;;1.05;1.05;;;;;;;;;;6183418;23;20195;-94
2023/08/31 13:28:07;;;;;;;3.03;1.75;;;;;;;;;;6183549;23;20211;-95
2023/08/31 13:30:35;;;;;;;1.00;1.00;;;;;;;;;;6183807;23;20195;-95
2023/08/31 13:33:04;;;;;;;1.13;1.10;;;;;;;;;;6183497;23;20195;-96
2023/08/31 13:35:33;;;;;;;1.45;0.98;;;;;;;;;;6183354;23;20179;-95
2023/08/31 13:38:01;;;;;;;1.23;1.13;;;;;;;;;;6183554;23;20168;-94
2023/08/31 13:40:30;;;;;;;1.00;0.98;;;;;;;;;;6182305;23;20182;-94
2023/08/31 13:43:02;;;;;;;1.10;1.00;;;;;;;;;;6184859;23;20143;-94
2023/08/31 13:45:30;;;;;;;1.88;1.48;;;;;;;;;;6184814;23;20175;-95
2023/08/31 13:47:59;;;;;;;1.02;1.02;;;;;;;;;;6185020;23;20148;-95
2023/08/31 13:50:27;;;;;;;1.05;0.95;;;;;;;;;;6185083;23;20151;-94
2023/08/31 13:52:57;;;;;;;1.73;1.33;;;;;;;;;;6184750;23;20159;-96
2023/08/31 13:55:25;;;;;;;1.38;1.10;;;;;;;;;;6184896;23;20144;-95
2023/08/31 13:57:53;;;;;;;0.98;0.93;;;;;;;;;;6184917;23;20151;-96
2023/08/31 14:00:21;;;;;;;1.48;1.00;;;;;;;;;;6185067;23;20154;-95
2023/08/31 14:02:49;;;;;;;1.20;1.08;;;;;;;;;;6184871;23;20155;-95
2023/08/31 14:05:17;;;;;;;1.17;1.08;;;;;;;;;;6184751;23;20202;-94
2023/08/31 14:07:45;;;;;;;1.00;0.75;;;;;;;;;;6184803;23;20155;-95
2023/08/31 14:10:14;;;;;;;0.88;0.88;;;;;;;;;;6184829;23;20175;-95
2023/08/31 14:12:42;;;;;;;0.98;0.90;;;;;;;;;;6184446;23;20218;-95
2023/08/31 14:15:10;;;;;;;0.95;0.90;;;;;;;;;;6184628;23;20152;-95
2023/08/31 14:17:39;;;;;;;0.57;0.57;;;;;;;;;;6184838;23;20143;-95
2023/08/31 14:20:09;;;;;;;1.83;0.90;;;;;;;;;;6185045;23;20171;-95
2023/08/31 14:22:37;;;;;;;1.83;1.00;;;;;;;;;;6184646;23;20148;-95
2023/08/31 14:25:06;;;;;;;1.33;1.10;;;;;;;;;;6184254;23;20147;-96
2023/08/31 14:27:35;;;;;;;1.05;1.05;;;;;;;;;;6184721;23;20163;-95
2023/08/31 14:30:03;;;;;;;2.47;1.58;;;;;;;;;;6184877;23;20156;-94
2023/08/31 14:32:31;;;;;;;1.60;1.38;;;;;;;;;;6184745;23;20147;-94
2023/08/31 14:34:59;;;;;;;1.00;0.90;;;;;;;;;;6184493;23;20143;-96
2023/08/31 14:37:26;;;;;;;0.60;0.60;;;;;;;;;;6184634;23;20143;-95
2023/08/31 14:39:54;;;;;;;0.70;0.70;;;;;;;;;;6184495;23;20159;-96
2023/08/31 14:42:24;;;;;;;1.25;0.90;;;;;;;;;;6184515;23;20155;-95
2023/08/31 14:44:54;;;;;;;0.80;0.80;;;;;;;;;;6184421;23;20152;-95
2023/08/31 14:47:21;;;;;;;0.93;0.90;;;;;;;;;;6184600;23;20220;-95
2023/08/31 14:49:49;;;;;;;0.95;0.88;;;;;;;;;;6184621;23;20151;-95
2023/08/31 14:52:17;;;;;;;1.48;0.85;;;;;;;;;;6184587;23;20199;-95
2023/08/31 14:54:45;;;;;;;0.85;0.85;;;;;;;;;;6184267;23;20178;-94
2023/08/31 14:57:13;;;;;;;0.90;0.90;;;;;;;;;;6184529;23;20155;-95
2023/08/31 14:59:41;;;;;;;0.70;0.70;;;;;;;;;;6184583;23;20151;-95
2023/08/31 15:02:11;;;;;;;1.08;0.98;;;;;;;;;;6184350;23;20147;-96
2023/08/31 15:04:38;;;;;;;1.40;1.30;;;;;;;;;;6184292;23;20165;-95
2023/08/31 15:07:07;;;;;;;1.20;1.10;;;;;;;;;;6184562;23;20170;-94
2023/08/31 15:09:34;;;;;;;0.95;0.85;;;;;;;;;;6184574;23;20151;-95
2023/08/31 15:12:02;;;;;;;0.77;0.77;;;;;;;;;;6184034;23;20154;-95
2023/08/31 15:14:30;;;;;;;4.75;1.77;;;;;;;;;;6184120;23;20148;-94
2023/08/31 15:16:58;;;;;;;1.00;1.00;;;;;;;;;;6184474;23;20151;-95
2023/08/31 15:19:28;;;;;;;1.75;1.08;;;;;;;;;;6184545;23;20167;-95
2023/08/31 15:21:56;;;;;;;0.80;0.80;;;;;;;;;;6184291;23;20148;-96
2023/08/31 15:24:24;;;;;;;1.23;1.10;;;;;;;;;;6184285;23;20155;-94
2023/08/31 15:26:52;;;;;;;0.80;0.80;;;;;;;;;;6184297;23;20166;-95
2023/08/31 15:29:20;;;;;;;1.20;1.10;;;;;;;;;;6184307;23;20143;-94
2023/08/31 15:31:48;;;;;;;0.77;0.77;;;;;;;;;;6184270;23;20144;-95
2023/08/31 15:34:16;;;;;;;1.48;1.00;;;;;;;;;;6184275;23;20147;-95
2023/08/31 15:36:45;;;;;;;1.67;0.90;;;;;;;;;;6185275;23;20156;-95
2023/08/31 15:39:13;;;;;;;0.60;0.60;;;;;;;;;;6186072;23;20159;-94
2023/08/31 15:41:41;;;;;;;1.00;1.00;;;;;;;;;;6186200;23;20162;-95
2023/08/31 15:44:09;;;;;;;1.17;1.10;;;;;;;;;;6186033;23;20151;-95
2023/08/31 15:46:36;;;;;;;1.17;1.08;;;;;;;;;;6186013;23;20175;-95
2023/08/31 15:49:04;;;;;;;1.10;0.90;;;;;;;;;;6186155;23;20151;-95
2023/08/31 15:51:33;;;;;;;0.90;0.90;;;;;;;;;;6186110;23;20154;-94
2023/08/31 15:54:04;;;;;;;3.65;1.40;;;;;;;;;;6186011;23;20148;-94
2023/08/31 15:56:33;;;;;;;1.13;1.05;;;;;;;;;;6186116;23;20155;-95
2023/08/31 15:59:00;;;;;;;1.08;0.98;;;;;;;;;;6186040;23;20199;-95
2023/08/31 16:01:30;;;;;;;0.65;0.65;;;;;;;;;;6186147;23;20148;-95
2023/08/31 16:03:58;;;;;;;1.25;1.23;;;;;;;;;;6185776;23;20174;-95
2023/08/31 16:06:25;;;;;;;1.20;1.10;;;;;;;;;;6185751;23;20158;-95
2023/08/31 16:08:53;;;;;;;2.00;1.17;;;;;;;;;;6185978;23;20155;-95
2023/08/31 16:11:24;;;;;;;1.35;0.90;;;;;;;;;;6186397;23;20144;-95
2023/08/31 16:13:52;;;;;;;1.05;0.98;;;;;;;;;;6185428;23;20147;-94
2023/08/31 16:16:23;;;;;;;2.13;1.70;;;;;;;;;;6185857;23;20163;-95
2023/08/31 16:18:50;;;;;;;0.88;0.88;;;;;;;;;;6185993;23;20151;-94
2023/08/31 16:21:18;;;;;;;0.88;0.88;;;;;;;;;;6185944;23;20143;-95
2023/08/31 16:23:46;;;;;;;1.05;0.95;;;;;;;;;;6185697;23;20151;-95
2023/08/31 16:26:14;;;;;;;1.20;1.10;;;;;;;;;;6185915;23;20159;-95
2023/08/31 16:28:43;;;;;;;1.10;1.00;;;;;;;;;;6185690;23;20164;-95
2023/08/31 16:31:11;;;;;;;1.15;1.02;;;;;;;;;;6185826;23;20174;-94
2023/08/31 16:33:39;;;;;;;1.35;1.20;;;;;;;;;;6185578;23;20147;-94
2023/08/31 16:36:06;;;;;;;1.00;0.88;;;;;;;;;;6185682;23;20147;-94
2023/08/31 16:38:34;;;;;;;0.93;0.93;;;;;;;;;;6185623;23;20147;-94
2023/08/31 16:41:02;;;;;;;1.00;0.90;;;;;;;;;;6185671;23;20151;-94
2023/08/31 16:43:30;;;;;;;0.95;0.95;;;;;;;;;;6185319;23;20151;-94
2023/08/31 16:46:03;;;;;;;1.67;1.58;;;;;;;;;;6185500;23;20208;-95
2023/08/31 16:48:31;;;;;;;0.90;0.90;;;;;;;;;;6185164;23;20162;-96
2023/08/31 16:50:59;;;;;;;1.40;1.30;;;;;;;;;;6185587;23;20170;-96
2023/08/31 16:53:26;;;;;;;3.22;1.10;;;;;;;;;;6185377;23;20160;-95
2023/08/31 16:55:54;;;;;;;1.20;1.10;;;;;;;;;;6185416;23;20160;-95
2023/08/31 16:58:22;;;;;;;1.10;0.82;;;;;;;;;;6185614;23;20158;-96
2023/08/31 17:00:50;;;;;;;1.08;1.00;;;;;;;;;;6185531;23;20210;-94
2023/08/31 17:03:19;;;;;;;1.10;1.00;;;;;;;;;;6185289;23;20151;-95
2023/08/31 17:05:51;;;;;;;1.83;1.02;;;;;;;;;;6185463;23;20147;-94
2023/08/31 17:08:19;;;;;;;0.60;0.60;;;;;;;;;;6185395;23;20167;-95
2023/08/31 17:10:46;;;;;;;0.80;0.80;;;;;;;;;;6185492;23;20186;-95
2023/08/31 17:13:14;;;;;;;1.00;0.90;;;;;;;;;;6184878;23;20163;-95
2023/08/31 17:15:42;;;;;;;0.65;0.65;;;;;;;;;;6185338;23;20152;-95
2023/08/31 17:18:10;;;;;;;0.80;0.80;;;;;;;;;;6185281;23;20143;-95
2023/08/31 17:20:39;;;;;;;2.08;0.80;;;;;;;;;;6185291;23;20457;-94
2023/08/31 17:23:07;;;;;;;1.17;1.08;;;;;;;;;;6185161;23;20166;-94
2023/08/31 17:25:35;;;;;;;0.95;0.95;;;;;;;;;;6185243;23;20147;-95
2023/08/31 17:28:03;;;;;;;1.40;1.00;;;;;;;;;;6185227;23;20156;-94
2023/08/31 17:30:30;;;;;;;1.20;1.10;;;;;;;;;;6185237;23;20151;-94
2023/08/31 17:32:58;;;;;;;1.77;1.40;;;;;;;;;;6184873;23;20163;-96
2023/08/31 17:35:26;;;;;;;1.30;1.13;;;;;;;;;;6185260;23;20178;-94
2023/08/31 17:37:56;;;;;;;2.58;1.23;;;;;;;;;;6185203;23;20144;-95
2023/08/31 17:40:24;;;;;;;1.27;1.17;;;;;;;;;;6185203;23;20171;-93
2023/08/31 17:42:52;;;;;;;0.98;0.93;;;;;;;;;;6184829;23;20147;-95
2023/08/31 17:45:19;;;;;;;1.98;1.27;;;;;;;;;;6185570;23;20154;-94
2023/08/31 17:47:47;;;;;;;2.20;1.10;;;;;;;;;;6185041;23;20171;-94
2023/08/31 17:50:15;;;;;;;1.00;1.00;;;;;;;;;;6185105;23;20154;-95
2023/08/31 17:52:43;;;;;;;1.20;1.10;;;;;;;;;;6185171;23;20152;-94
2023/08/31 17:55:12;;;;;;;2.45;1.98;;;;;;;;;;6184962;23;20158;-94
2023/08/31 17:57:41;;;;;;;1.02;1.02;;;;;;;;;;6184977;23;20143;-95
2023/08/31 18:00:11;;;;;;;3.22;1.52;;;;;;;;;;6184879;23;20159;-94
2023/08/31 18:02:40;;;;;;;1.40;1.30;;;;;;;;;;6165210;23;20178;-93
2023/08/31 18:05:08;;;;;;;1.08;0.98;;;;;;;;;;6168798;23;20211;-92
2023/08/31 18:07:36;;;;;;;1.92;1.00;;;;;;;;;;6160466;23;20183;-93
2023/08/31 18:10:04;;;;;;;1.15;1.05;;;;;;;;;;6160899;23;20183;-92
2023/08/31 18:12:33;;;;;;;1.20;1.00;;;;;;;;;;6160394;23;20198;-93
2023/08/31 18:15:01;;;;;;;1.48;1.38;;;;;;;;;;6157889;23;20266;-92
2023/08/31 18:17:28;;;;;;;1.00;1.00;;;;;;;;;;6157721;23;20397;-92
2023/08/31 18:19:56;;;;;;;0.70;0.70;;;;;;;;;;6159230;23;20227;-92
2023/08/31 18:22:24;;;;;;;1.05;0.93;;;;;;;;;;6157891;23;20680;-92
2023/08/31 18:24:54;;;;;;;0.77;0.73;;;;;;;;;;6158352;23;20218;-92
2023/08/31 18:27:22;;;;;;;0.90;0.90;;;;;;;;;;6159658;23;20187;-92
2023/08/31 18:29:51;;;;;;;0.70;0.70;;;;;;;;;;6157683;23;20569;-92
2023/08/31 18:32:19;;;;;;;0.95;0.80;;;;;;;;;;6157586;23;20171;-92
2023/08/31 18:34:48;;;;;;;0.75;0.73;;;;;;;;;;6158623;23;20198;-91
2023/08/31 18:37:16;;;;;;;0.70;0.70;;;;;;;;;;6158499;23;20501;-92
2023/08/31 18:39:44;;;;;;;1.50;1.17;;;;;;;;;;6156943;23;20198;-92
2023/08/31 18:42:11;;;;;;;0.93;0.93;;;;;;;;;;6157199;23;20170;-91
2023/08/31 18:44:40;;;;;;;1.05;0.88;;;;;;;;;;6156967;23;20183;-92
2023/08/31 18:47:09;;;;;;;0.70;0.70;;;;;;;;;;6156932;23;20631;-92
2023/08/31 18:49:36;;;;;;;1.10;0.80;;;;;;;;;;6156246;23;20269;-92
2023/08/31 18:52:04;;;;;;;1.52;0.90;;;;;;;;;;6156554;23;20238;-92
2023/08/31 18:54:32;;;;;;;1.33;1.08;;;;;;;;;;6157066;23;20652;-92
2023/08/31 18:56:59;;;;;;;0.80;0.80;;;;;;;;;;6157166;23;20334;-92
2023/08/31 18:59:27;;;;;;;0.80;0.80;;;;;;;;;;6155766;23;20242;-92